Time;durP1;ratioP1;P1;durP2;ratioP2;P2;SDS_P1;SDS_P2;PMS_P1;PMS_P2;Temp;Humidity;BMP_temperature;BMP_pressure;BME280_temperature;BME280_humidity;BME280_pressure;Samples;Min_cycle;Max_cycle;Signal;HPM_P1;HPM_P2
2021/10/11 00:00:21;;;;;;;24.50;16.88;;;5.50;39.40;;;;;;5078180;28;20525;-68
2021/10/11 00:02:53;;;;;;;27.65;17.42;;;5.60;40.20;;;;;;5076958;28;20040;-68
2021/10/11 00:05:24;;;;;;;25.90;17.02;;;5.60;40.10;;;;;;5078092;28;20534;-68
2021/10/11 00:07:54;;;;;;;24.25;17.00;;;5.60;39.60;;;;;;5076130;28;20044;-67
2021/10/11 00:10:26;;;;;;;25.67;17.92;;;5.60;39.60;;;;;;5078876;28;20559;-67
2021/10/11 00:12:57;;;;;;;26.98;17.15;;;5.60;39.70;;;;;;5077924;28;20718;-67
2021/10/11 00:15:27;;;;;;;24.42;16.52;;;5.60;39.40;;;;;;5071316;28;20079;-67
2021/10/11 00:17:57;;;;;;;24.50;17.23;;;5.60;39.60;;;;;;5063045;28;20055;-67
2021/10/11 00:20:27;;;;;;;25.45;17.10;;;5.60;38.80;;;;;;5073846;28;20101;-68
2021/10/11 00:22:55;;;;;;;23.88;16.98;;;5.60;38.50;;;;;;5075242;28;20516;-67
2021/10/11 00:25:26;;;;;;;30.85;16.35;;;5.60;38.50;;;;;;5071367;28;20043;-67
2021/10/11 00:27:55;;;;;;;25.65;16.40;;;5.50;38.50;;;;;;5077435;28;20059;-68
2021/10/11 00:30:26;;;;;;;25.63;16.02;;;5.40;38.40;;;;;;5073407;28;20040;-68
2021/10/11 00:32:54;;;;;;;24.58;16.42;;;5.40;38.90;;;;;;5077958;28;20067;-67
2021/10/11 00:35:27;;;;;;;25.02;16.65;;;5.40;39.20;;;;;;5072670;28;20044;-68
2021/10/11 00:37:58;;;;;;;24.02;16.65;;;5.40;39.50;;;;;;5074836;28;20048;-66
2021/10/11 00:40:28;;;;;;;23.63;16.73;;;5.30;39.50;;;;;;5075462;28;20048;-67
2021/10/11 00:42:55;;;;;;;27.52;17.13;;;5.40;39.50;;;;;;5073164;28;20079;-67
2021/10/11 00:45:27;;;;;;;26.23;17.20;;;5.40;39.50;;;;;;5072386;28;20044;-67
2021/10/11 00:47:58;;;;;;;24.98;16.27;;;5.40;39.50;;;;;;5077695;28;20124;-67
2021/10/11 00:50:29;;;;;;;25.02;16.10;;;5.30;39.70;;;;;;5072953;28;20062;-67
2021/10/11 00:53:03;;;;;;;25.48;16.98;;;5.30;39.50;;;;;;5073663;28;20047;-67
2021/10/11 00:55:31;;;;;;;28.85;16.67;;;5.30;39.60;;;;;;5077088;28;20293;-67
2021/10/11 00:57:59;;;;;;;26.25;17.15;;;5.30;39.70;;;;;;5078805;28;20117;-67
2021/10/11 01:00:29;;;;;;;25.33;17.15;;;5.30;40.40;;;;;;5076901;28;20510;-68
2021/10/11 01:03:00;;;;;;;28.25;16.52;;;5.30;40.70;;;;;;5080561;28;20044;-68
2021/10/11 01:05:31;;;;;;;23.90;17.40;;;5.30;40.70;;;;;;5070102;28;20051;-68
2021/10/11 01:08:00;;;;;;;27.65;17.45;;;5.30;40.80;;;;;;5080937;28;20131;-67
2021/10/11 01:10:34;;;;;;;25.13;17.02;;;5.30;41.30;;;;;;5077758;28;20089;-67
2021/10/11 01:13:02;;;;;;;25.67;17.75;;;5.20;42.20;;;;;;5082497;28;20043;-67
2021/10/11 01:15:33;;;;;;;27.52;17.95;;;5.30;42.00;;;;;;5073805;28;20116;-67
2021/10/11 01:18:03;;;;;;;30.92;18.63;;;5.30;41.60;;;;;;5081959;28;20045;-67
2021/10/11 01:20:36;;;;;;;26.10;17.55;;;5.20;41.40;;;;;;5074075;28;20047;-67
2021/10/11 01:23:05;;;;;;;28.50;17.77;;;5.20;41.50;;;;;;5074103;28;20522;-68
2021/10/11 01:25:36;;;;;;;29.75;19.65;;;5.30;41.50;;;;;;5077989;28;20059;-67
2021/10/11 01:28:06;;;;;;;30.40;19.48;;;5.30;41.60;;;;;;5072780;28;20071;-69
2021/10/11 01:30:34;;;;;;;28.13;19.55;;;5.40;41.30;;;;;;5075179;28;20052;-68
2021/10/11 01:33:02;;;;;;;28.23;18.33;;;5.30;40.80;;;;;;5077618;28;20074;-68
2021/10/11 01:35:31;;;;;;;29.50;18.83;;;5.30;40.20;;;;;;5074733;28;20523;-68
2021/10/11 01:38:00;;;;;;;30.15;18.90;;;5.30;40.80;;;;;;5082769;28;20546;-67
2021/10/11 01:40:28;;;;;;;26.40;18.73;;;5.20;40.40;;;;;;5078788;28;20054;-69
2021/10/11 01:43:00;;;;;;;28.02;18.15;;;5.20;40.20;;;;;;5080129;28;20044;-68
2021/10/11 01:45:29;;;;;;;28.52;16.83;;;5.20;40.60;;;;;;5080333;28;20621;-66
2021/10/11 01:48:01;;;;;;;25.95;16.98;;;5.10;40.50;;;;;;5080932;28;20054;-68
2021/10/11 01:50:34;;;;;;;26.55;17.23;;;5.10;40.70;;;;;;5069738;28;20044;-67
2021/10/11 01:53:03;;;;;;;25.42;16.65;;;5.10;40.90;;;;;;5091257;28;20098;-66
2021/10/11 01:55:34;;;;;;;27.35;17.85;;;5.10;40.60;;;;;;5080921;28;20532;-67
2021/10/11 01:58:04;;;;;;;28.45;17.98;;;5.00;40.40;;;;;;5081395;28;20098;-67
2021/10/11 02:00:37;;;;;;;27.98;18.45;;;5.00;40.80;;;;;;5086558;28;20047;-68
2021/10/11 02:03:07;;;;;;;24.77;17.55;;;5.00;41.20;;;;;;5065956;28;20058;-68
2021/10/11 02:05:35;;;;;;;30.65;19.13;;;4.90;40.80;;;;;;5078166;28;20040;-66
2021/10/11 02:08:05;;;;;;;27.55;17.95;;;4.90;41.10;;;;;;5086595;28;20052;-67
2021/10/11 02:10:37;;;;;;;28.88;19.10;;;4.90;40.90;;;;;;5078217;28;20123;-67
2021/10/11 02:13:06;;;;;;;31.88;19.40;;;4.90;41.00;;;;;;5079695;28;20060;-67
2021/10/11 02:15:38;;;;;;;28.00;18.00;;;4.90;40.90;;;;;;5085649;28;20054;-67
2021/10/11 02:18:06;;;;;;;26.58;18.35;;;4.90;40.80;;;;;;5078726;27;20055;-67
2021/10/11 02:20:39;;;;;;;29.73;18.55;;;4.90;40.60;;;;;;5083891;28;20086;-68
2021/10/11 02:23:11;;;;;;;25.63;18.00;;;4.80;40.20;;;;;;5085488;28;20114;-67
2021/10/11 02:25:39;;;;;;;24.13;18.08;;;4.90;40.50;;;;;;5074469;28;20058;-69
2021/10/11 02:28:07;;;;;;;28.92;18.65;;;4.90;40.60;;;;;;5086902;28;20042;-67
2021/10/11 02:30:40;;;;;;;28.85;19.02;;;4.80;40.80;;;;;;5070968;28;20068;-67
2021/10/11 02:33:09;;;;;;;28.88;18.25;;;4.80;40.70;;;;;;5067797;28;20492;-68
2021/10/11 02:35:42;;;;;;;30.67;19.05;;;4.90;40.90;;;;;;5072366;28;20045;-67
2021/10/11 02:38:11;;;;;;;27.92;18.85;;;4.80;40.20;;;;;;5070378;28;20131;-67
2021/10/11 02:40:40;;;;;;;27.33;18.75;;;4.80;40.70;;;;;;5072546;28;20122;-68
2021/10/11 02:43:08;;;;;;;25.63;18.08;;;4.80;40.70;;;;;;5072431;28;20132;-67
2021/10/11 02:45:36;;;;;;;29.58;18.30;;;4.80;40.80;;;;;;5067378;28;20045;-67
2021/10/11 02:48:04;;;;;;;28.75;18.70;;;4.80;41.00;;;;;;5074338;28;20060;-67
2021/10/11 02:50:34;;;;;;;29.85;18.70;;;4.80;40.80;;;;;;5053769;28;20048;-67
2021/10/11 02:53:02;;;;;;;29.08;18.65;;;4.80;40.20;;;;;;5071946;28;20137;-68
2021/10/11 02:55:35;;;;;;;26.55;18.52;;;4.80;39.80;;;;;;5072488;28;20047;-68
2021/10/11 02:58:08;;;;;;;24.77;17.48;;;4.70;40.10;;;;;;5071233;28;20040;-67
2021/10/11 03:00:37;;;;;;;30.27;17.75;;;4.70;39.50;;;;;;5072417;28;20110;-67
2021/10/11 03:03:05;;;;;;;25.33;17.48;;;4.70;39.90;;;;;;5068128;28;20036;-67
2021/10/11 03:05:33;;;;;;;26.80;17.83;;;4.60;39.80;;;;;;5064980;28;20057;-67
2021/10/11 03:08:03;;;;;;;26.05;18.23;;;4.60;40.40;;;;;;5075034;28;20048;-67
2021/10/11 03:10:37;;;;;;;24.23;17.48;;;4.60;40.50;;;;;;5069315;28;20047;-67
2021/10/11 03:13:09;;;;;;;28.40;19.15;;;4.70;40.40;;;;;;5073212;28;20040;-67
2021/10/11 03:15:38;;;;;;;27.33;18.30;;;4.60;39.90;;;;;;5068489;28;20063;-68
2021/10/11 03:18:06;;;;;;;27.40;18.52;;;4.60;40.10;;;;;;5068365;28;20049;-67
2021/10/11 03:20:35;;;;;;;26.13;18.48;;;4.50;40.00;;;;;;5072835;28;20047;-67
2021/10/11 03:23:03;;;;;;;27.60;17.83;;;4.50;40.50;;;;;;5070400;28;20078;-68
2021/10/11 03:25:33;;;;;;;25.08;17.88;;;4.50;40.80;;;;;;5066411;28;20048;-67
2021/10/11 03:28:02;;;;;;;25.38;18.10;;;4.60;40.80;;;;;;5072678;28;20071;-67
2021/10/11 03:30:32;;;;;;;27.00;18.00;;;4.60;40.10;;;;;;5070380;28;20044;-67
2021/10/11 03:33:01;;;;;;;28.80;18.48;;;4.50;39.70;;;;;;5070688;28;20454;-67
2021/10/11 03:35:29;;;;;;;25.35;17.45;;;4.50;39.80;;;;;;5071608;28;20079;-68
2021/10/11 03:37:57;;;;;;;25.52;18.35;;;4.40;40.10;;;;;;5065987;28;20083;-67
2021/10/11 03:40:29;;;;;;;26.33;18.35;;;4.40;40.70;;;;;;5073145;28;20181;-67
2021/10/11 03:42:58;;;;;;;30.30;20.67;;;4.30;41.20;;;;;;5067349;28;20044;-67
2021/10/11 03:45:28;;;;;;;31.52;19.95;;;4.40;41.70;;;;;;5070599;28;20212;-67
2021/10/11 03:47:56;;;;;;;28.25;19.58;;;4.40;41.70;;;;;;5064900;28;20083;-67
2021/10/11 03:50:24;;;;;;;28.52;19.48;;;4.40;41.70;;;;;;5069025;28;20495;-67
2021/10/11 03:52:56;;;;;;;27.10;18.10;;;4.50;41.70;;;;;;5069567;28;20123;-67
2021/10/11 03:55:24;;;;;;;30.58;19.67;;;4.40;41.00;;;;;;5068909;28;20136;-67
2021/10/11 03:57:53;;;;;;;31.80;20.15;;;4.40;41.50;;;;;;5067632;28;20153;-67
2021/10/11 04:00:27;;;;;;;32.40;19.73;;;4.50;41.40;;;;;;5070031;28;20445;-67
2021/10/11 04:02:56;;;;;;;32.88;20.52;;;4.40;40.80;;;;;;5072841;28;20079;-66
2021/10/11 04:05:28;;;;;;;32.03;18.30;;;4.40;40.70;;;;;;5071606;28;20110;-66
2021/10/11 04:08:00;;;;;;;27.15;18.17;;;4.40;40.00;;;;;;5083316;28;20048;-66
2021/10/11 04:10:37;;;;;;;31.42;19.20;;;4.30;39.90;;;;;;5079185;28;20563;-67
2021/10/11 04:13:09;;;;;;;26.20;17.83;;;4.40;40.30;;;;;;5075442;28;20218;-67
2021/10/11 04:15:39;;;;;;;25.88;17.85;;;4.30;39.70;;;;;;5081289;28;20131;-67
2021/10/11 04:18:09;;;;;;;28.73;18.58;;;4.30;40.20;;;;;;5077249;28;20331;-67
2021/10/11 04:20:41;;;;;;;25.70;17.65;;;4.30;39.80;;;;;;5074225;28;20700;-67
2021/10/11 04:23:09;;;;;;;28.35;17.77;;;4.30;39.90;;;;;;5079482;28;20511;-67
2021/10/11 04:25:40;;;;;;;27.60;17.45;;;4.30;40.00;;;;;;5077406;28;20092;-67
2021/10/11 04:28:10;;;;;;;27.88;18.40;;;4.40;39.90;;;;;;5077408;28;20036;-67
2021/10/11 04:30:44;;;;;;;;;;;4.40;39.20;;;;;;5077721;28;20567;-67
2021/10/11 04:33:12;;;;;;;28.33;18.98;;;4.30;38.60;;;;;;5075430;28;20302;-67
2021/10/11 04:35:42;;;;;;;24.27;17.48;;;4.20;38.70;;;;;;5074554;28;20354;-67
2021/10/11 04:38:14;;;;;;;28.92;18.75;;;4.10;39.70;;;;;;5081855;28;20171;-67
2021/10/11 04:40:42;;;;;;;26.92;17.95;;;4.20;40.20;;;;;;5078128;28;20055;-67
2021/10/11 04:43:14;;;;;;;28.17;18.92;;;4.20;40.30;;;;;;5038838;28;20082;-67
2021/10/11 04:45:44;;;;;;;28.10;18.67;;;4.20;39.80;;;;;;5077017;28;20042;-67
2021/10/11 04:48:12;;;;;;;28.13;17.92;;;4.20;39.40;;;;;;5074721;28;20638;-67
2021/10/11 04:50:43;;;;;;;29.05;17.90;;;4.20;39.60;;;;;;5083828;28;20619;-68
2021/10/11 04:53:16;;;;;;;25.92;18.25;;;4.20;39.60;;;;;;5078022;28;20093;-68
2021/10/11 04:55:48;;;;;;;30.17;18.10;;;4.10;39.30;;;;;;5077581;28;20052;-68
2021/10/11 04:58:16;;;;;;;28.92;18.77;;;4.10;39.50;;;;;;5082413;28;20056;-68
2021/10/11 05:00:46;;;;;;;31.05;18.80;;;4.20;39.80;;;;;;5076227;28;20048;-68
2021/10/11 05:03:14;;;;;;;26.92;18.45;;;4.30;39.50;;;;;;5081697;28;20908;-68
2021/10/11 05:05:46;;;;;;;27.17;18.30;;;4.30;38.80;;;;;;5079609;28;20055;-68
2021/10/11 05:08:14;;;;;;;29.77;18.05;;;4.30;38.80;;;;;;5078820;28;20098;-67
2021/10/11 05:10:42;;;;;;;24.38;17.65;;;4.20;38.80;;;;;;5085824;28;20048;-67
2021/10/11 05:13:11;;;;;;;31.08;19.15;;;4.30;38.70;;;;;;5076559;28;20581;-67
2021/10/11 05:15:39;;;;;;;26.13;17.83;;;4.20;38.70;;;;;;5075677;28;20044;-67
2021/10/11 05:18:09;;;;;;;30.80;19.02;;;4.20;38.40;;;;;;5086369;28;20077;-68
2021/10/11 05:20:44;;;;;;;26.80;17.88;;;4.30;38.50;;;;;;5072978;28;20040;-67
2021/10/11 05:23:12;;;;;;;30.65;18.13;;;4.20;38.00;;;;;;5078668;28;20071;-67
2021/10/11 05:25:40;;;;;;;32.75;18.50;;;4.20;38.50;;;;;;5075133;28;20048;-68
2021/10/11 05:28:12;;;;;;;31.55;18.45;;;4.10;38.80;;;;;;5076014;28;20051;-67
2021/10/11 05:30:45;;;;;;;31.40;18.90;;;4.10;38.80;;;;;;5081233;28;20575;-67
2021/10/11 05:33:14;;;;;;;31.45;19.00;;;4.10;39.20;;;;;;5074784;28;20040;-69
2021/10/11 05:35:42;;;;;;;29.52;18.90;;;4.10;39.30;;;;;;5073292;28;20126;-67
2021/10/11 05:38:13;;;;;;;27.45;18.50;;;4.10;38.80;;;;;;5077756;28;20097;-67
2021/10/11 05:40:43;;;;;;;30.63;18.98;;;4.10;38.70;;;;;;5071795;28;20702;-67
2021/10/11 05:43:11;;;;;;;34.75;19.23;;;4.20;38.40;;;;;;5068353;28;20048;-68
2021/10/11 05:45:39;;;;;;;29.13;18.23;;;4.20;38.20;;;;;;5066032;28;20098;-67
2021/10/11 05:48:07;;;;;;;28.92;18.67;;;4.30;38.40;;;;;;5067333;28;20692;-66
2021/10/11 05:50:41;;;;;;;30.98;19.10;;;4.30;37.90;;;;;;5068151;28;20128;-67
2021/10/11 05:53:12;;;;;;;29.27;18.85;;;4.40;37.50;;;;;;5064953;28;20123;-67
2021/10/11 05:55:40;;;;;;;29.05;18.45;;;4.40;36.60;;;;;;5069516;28;20056;-67
2021/10/11 05:58:08;;;;;;;30.73;18.52;;;4.50;36.60;;;;;;5070804;28;20105;-66
2021/10/11 06:00:37;;;;;;;28.63;18.73;;;4.50;36.10;;;;;;5065652;28;20037;-67
2021/10/11 06:03:09;;;;;;;30.58;19.00;;;4.60;35.60;;;;;;5067451;28;20504;-69
2021/10/11 06:05:37;;;;;;;31.02;17.42;;;4.60;34.80;;;;;;5066165;28;20121;-67
2021/10/11 06:08:08;;;;;;;29.80;18.17;;;4.60;33.90;;;;;;5068391;28;20068;-67
2021/10/11 06:10:39;;;;;;;28.67;17.85;;;4.70;33.70;;;;;;5066754;28;20499;-69
2021/10/11 06:13:07;;;;;;;25.73;16.60;;;4.70;32.70;;;;;;5072510;28;20056;-67
2021/10/11 06:15:37;;;;;;;28.38;17.20;;;4.90;32.90;;;;;;5073418;28;20066;-67
2021/10/11 06:18:05;;;;;;;27.20;15.95;;;4.90;31.50;;;;;;5077229;28;20503;-67
2021/10/11 06:20:34;;;;;;;29.08;17.23;;;5.00;30.60;;;;;;5076609;28;20044;-68
2021/10/11 06:23:07;;;;;;;28.05;16.42;;;5.00;29.80;;;;;;5082253;28;20036;-67
2021/10/11 06:25:35;;;;;;;33.90;16.67;;;5.00;29.70;;;;;;5079259;28;20044;-66
2021/10/11 06:28:09;;;;;;;24.67;15.80;;;4.90;29.20;;;;;;5081885;28;20040;-68
2021/10/11 06:30:39;;;;;;;22.83;15.45;;;4.90;30.30;;;;;;5081336;28;20040;-67
2021/10/11 06:33:08;;;;;;;26.60;17.30;;;5.10;30.20;;;;;;5081547;28;20529;-67
2021/10/11 06:35:46;;;;;;;27.13;15.75;;;5.10;29.60;;;;;;5078618;28;20533;-66
2021/10/11 06:38:21;;;;;;;28.98;17.52;;;5.10;29.90;;;;;;5083982;28;20054;-67
2021/10/11 06:40:55;;;;;;;39.05;19.50;;;5.30;28.80;;;;;;5080314;28;20066;-68
2021/10/11 06:43:24;;;;;;;44.05;22.77;;;5.40;28.10;;;;;;5078357;28;20040;-67
2021/10/11 06:45:57;;;;;;;36.47;21.85;;;5.40;27.80;;;;;;5078952;28;20040;-67
2021/10/11 06:48:25;;;;;;;35.47;19.33;;;5.50;27.70;;;;;;5076705;28;20525;-66
2021/10/11 06:50:53;;;;;;;30.55;19.27;;;5.60;27.80;;;;;;5081275;28;20053;-67
2021/10/11 06:53:22;;;;;;;23.90;16.75;;;5.70;26.90;;;;;;5081393;28;20138;-67
2021/10/11 06:55:51;;;;;;;26.92;17.27;;;5.90;26.40;;;;;;5073370;28;20122;-68
2021/10/11 06:58:19;;;;;;;28.25;17.27;;;5.90;25.60;;;;;;5084536;28;20112;-68
2021/10/11 07:00:46;;;;;;;30.10;16.83;;;5.90;24.40;;;;;;5078170;28;20123;-68
2021/10/11 07:03:15;;;;;;;26.48;16.48;;;5.90;22.90;;;;;;5077334;28;20054;-67
2021/10/11 07:05:43;;;;;;;29.70;17.13;;;6.20;23.30;;;;;;5082755;28;20450;-67
2021/10/11 07:08:11;;;;;;;26.38;16.40;;;6.40;21.80;;;;;;5079397;28;20565;-68
2021/10/11 07:10:43;;;;;;;26.27;17.50;;;6.30;20.40;;;;;;5078068;28;20062;-67
2021/10/11 07:13:15;;;;;;;23.15;15.82;;;6.50;20.50;;;;;;5083760;28;20101;-67
2021/10/11 07:15:43;;;;;;;27.13;15.95;;;6.70;19.50;;;;;;5076035;28;20040;-67
2021/10/11 07:18:11;;;;;;;23.80;16.63;;;6.70;17.70;;;;;;5082139;28;20054;-67
2021/10/11 07:20:43;;;;;;;31.58;17.55;;;6.60;18.70;;;;;;5080829;28;20052;-67
2021/10/11 07:23:15;;;;;;;24.40;16.23;;;6.80;18.90;;;;;;5076295;28;20079;-68
2021/10/11 07:25:44;;;;;;;24.13;15.40;;;6.70;17.20;;;;;;5081750;28;20045;-68
2021/10/11 07:28:18;;;;;;;30.00;17.45;;;6.90;17.30;;;;;;5077946;28;20044;-68
2021/10/11 07:30:46;;;;;;;28.40;17.38;;;7.00;16.50;;;;;;5078986;28;20681;-67
2021/10/11 07:33:14;;;;;;;24.65;17.05;;;7.00;16.70;;;;;;5080177;28;20069;-67
2021/10/11 07:35:42;;;;;;;25.80;17.58;;;6.90;17.30;;;;;;5081686;28;20210;-67
2021/10/11 07:38:12;;;;;;;32.00;17.88;;;6.90;17.30;;;;;;5077422;28;20049;-66
2021/10/11 07:40:54;;;;;;;25.70;16.10;;;7.10;16.10;;;;;;5083661;28;20059;-67
2021/10/11 07:43:21;;;;;;;27.42;17.17;;;7.00;16.60;;;;;;5085843;28;20052;-67
2021/10/11 07:45:50;;;;;;;31.15;17.75;;;7.00;16.10;;;;;;5087542;28;20036;-68
2021/10/11 07:48:18;;;;;;;29.77;16.98;;;7.20;16.00;;;;;;5086110;28;20056;-68
2021/10/11 07:50:46;;;;;;;25.92;17.27;;;7.50;15.60;;;;;;5088668;28;20132;-68
2021/10/11 07:53:14;;;;;;;27.55;16.58;;;7.70;14.30;;;;;;5083444;27;20052;-69
2021/10/11 07:55:48;;;;;;;24.88;16.58;;;7.70;13.50;;;;;;5087765;28;20507;-69
2021/10/11 07:58:18;;;;;;;25.80;16.23;;;7.90;13.10;;;;;;5087358;28;20108;-68
2021/10/11 08:00:46;;;;;;;29.63;15.63;;;7.90;10.90;;;;;;5082803;28;20197;-67
2021/10/11 08:03:14;;;;;;;24.30;16.42;;;8.10;11.40;;;;;;5080013;28;20533;-67
2021/10/11 08:05:43;;;;;;;28.95;16.52;;;8.20;11.00;;;;;;5072295;28;20056;-68
2021/10/11 08:08:15;;;;;;;29.95;15.95;;;8.40;10.30;;;;;;5083022;28;20051;-67
2021/10/11 08:10:46;;;;;;;22.98;16.15;;;8.40;9.80;;;;;;5080296;28;20048;-67
2021/10/11 08:13:20;;;;;;;28.60;17.20;;;8.40;9.90;;;;;;5077840;28;20139;-67
2021/10/11 08:15:51;;;;;;;25.85;16.92;;;8.30;9.30;;;;;;5079346;28;20038;-68
2021/10/11 08:18:23;;;;;;;29.30;16.67;;;8.50;9.00;;;;;;5081889;28;20438;-68
2021/10/11 08:20:51;;;;;;;28.88;16.77;;;8.70;9.40;;;;;;5077879;28;20102;-69
2021/10/11 08:23:21;;;;;;;24.48;16.15;;;8.80;8.20;;;;;;5081780;28;20047;-68
2021/10/11 08:25:49;;;;;;;26.13;16.67;;;8.90;7.00;;;;;;5077979;28;20043;-67
2021/10/11 08:28:20;;;;;;;26.85;17.45;;;8.80;7.80;;;;;;5076452;28;20047;-67
2021/10/11 08:30:54;;;;;;;25.73;16.95;;;8.90;6.60;;;;;;5081697;28;20044;-68
2021/10/11 08:33:24;;;;;;;25.65;17.42;;;8.90;6.80;;;;;;5076345;28;20071;-66
2021/10/11 08:35:53;;;;;;;29.02;16.50;;;9.00;5.90;;;;;;5070535;28;20045;-67
2021/10/11 08:38:22;;;;;;;25.63;15.65;;;8.70;7.20;;;;;;5081314;28;20040;-67
2021/10/11 08:40:55;;;;;;;23.75;16.25;;;8.80;7.10;;;;;;5077907;28;20064;-67
2021/10/11 08:43:29;;;;;;;22.90;15.55;;;9.10;6.40;;;;;;5077338;28;20131;-68
2021/10/11 08:45:57;;;;;;;24.70;15.57;;;9.30;5.60;;;;;;5082528;28;20072;-67
2021/10/11 08:48:25;;;;;;;25.20;17.02;;;9.60;4.50;;;;;;5077461;28;20508;-68
2021/10/11 08:50:53;;;;;;;23.33;15.75;;;9.90;4.50;;;;;;5081243;28;20101;-67
2021/10/11 08:53:22;;;;;;;24.55;16.25;;;9.80;2.30;;;;;;5084999;28;20055;-68
2021/10/11 08:55:50;;;;;;;24.92;15.68;;;9.70;3.40;;;;;;5071029;28;20040;-66
2021/10/11 08:58:20;;;;;;;23.95;14.88;;;9.90;3.00;;;;;;5082579;28;20498;-68
2021/10/11 09:01:04;;;;;;;22.35;14.40;;;9.90;1.70;;;;;;5077606;28;20044;-68
2021/10/11 09:03:35;;;;;;;25.65;14.65;;;10.20;1.50;;;;;;5077574;28;20129;-67
2021/10/11 09:06:05;;;;;;;21.65;13.98;;;10.30;1.00;;;;;;5078786;28;20048;-68
2021/10/11 09:08:35;;;;;;;15.10;11.07;;;10.50;1.00;;;;;;5079896;28;20040;-67
2021/10/11 09:11:05;;;;;;;19.92;12.50;;;9.90;1.00;;;;;;5076931;28;20119;-69
2021/10/11 09:13:39;;;;;;;20.15;12.63;;;10.10;1.00;;;;;;5080967;28;20055;-68
2021/10/11 09:16:11;;;;;;;20.52;12.60;;;10.50;1.00;;;;;;5074567;28;20048;-68
2021/10/11 09:18:51;;;;;;;20.48;13.77;;;10.30;1.00;;;;;;5076046;28;20044;-67
2021/10/11 09:21:30;;;;;;;24.37;14.00;;;10.30;1.00;;;;;;5081706;28;20166;-68
2021/10/11 09:24:06;;;;;;;22.42;14.07;;;10.70;1.00;;;;;;5077039;28;20313;-68
2021/10/11 09:26:46;;;;;;;20.50;14.07;;;10.90;1.00;;;;;;5075289;28;20164;-67
2021/10/11 09:29:15;;;;;;;20.88;14.48;;;10.80;1.00;;;;;;5078635;28;20056;-68
2021/10/11 09:31:48;;;;;;;22.75;15.25;;;10.80;1.00;;;;;;5075477;28;20045;-67
2021/10/11 09:34:21;;;;;;;24.63;15.68;;;10.60;1.00;;;;;;5075947;28;20071;-68
2021/10/11 09:37:00;;;;;;;20.85;15.07;;;10.90;1.00;;;;;;5080046;28;20120;-68
2021/10/11 09:39:32;;;;;;;22.75;15.95;;;10.90;1.00;;;;;;5078530;28;20069;-69
2021/10/11 09:42:02;;;;;;;22.13;15.18;;;10.90;1.00;;;;;;5077222;28;20052;-67
2021/10/11 09:44:31;;;;;;;20.52;14.75;;;10.70;1.00;;;;;;5079497;28;20060;-67
2021/10/11 09:47:03;;;;;;;22.98;14.55;;;10.90;1.00;;;;;;5074739;28;20044;-67
2021/10/11 09:49:32;;;;;;;21.92;13.48;;;11.00;1.00;;;;;;5073832;28;20044;-67
2021/10/11 09:52:00;;;;;;;25.35;14.55;;;10.80;1.00;;;;;;5077439;28;20136;-67
2021/10/11 09:54:28;;;;;;;19.10;13.98;;;10.80;1.00;;;;;;5076353;28;20138;-67
2021/10/11 09:57:01;;;;;;;27.05;14.75;;;10.80;1.00;;;;;;5079510;28;20050;-67
2021/10/11 09:59:31;;;;;;;24.10;14.32;;;11.20;1.00;;;;;;5083609;28;20041;-67
2021/10/11 10:02:04;;;;;;;16.50;13.50;;;11.40;1.00;;;;;;5079014;28;20047;-69
2021/10/11 10:04:38;;;;;;;25.40;13.75;;;11.80;1.00;;;;;;5079557;28;20049;-68
2021/10/11 10:07:08;;;;;;;21.58;15.35;;;11.90;1.00;;;;;;5086328;28;20095;-68
2021/10/11 10:09:43;;;;;;;20.25;15.35;;;11.70;1.00;;;;;;5078384;28;20040;-67
2021/10/11 10:12:13;;;;;;;22.20;14.90;;;11.30;1.00;;;;;;5084485;28;20487;-67
2021/10/11 10:14:42;;;;;;;24.35;13.23;;;11.60;1.00;;;;;;5086241;28;20490;-67
2021/10/11 10:17:11;;;;;;;19.35;13.85;;;11.40;1.00;;;;;;5078331;28;20036;-68
2021/10/11 10:19:41;;;;;;;21.75;14.30;;;11.50;1.00;;;;;;5082135;28;20041;-67
2021/10/11 10:22:14;;;;;;;22.15;13.82;;;11.50;1.00;;;;;;5073353;28;20091;-67
2021/10/11 10:24:43;;;;;;;22.48;14.43;;;11.20;1.00;;;;;;5071173;28;20058;-68
2021/10/11 10:27:14;;;;;;;25.10;14.25;;;11.70;1.00;;;;;;5073787;28;20044;-68
2021/10/11 10:29:44;;;;;;;20.50;13.98;;;11.40;1.00;;;;;;5074497;28;20155;-69
2021/10/11 10:32:17;;;;;;;19.60;14.38;;;11.70;1.00;;;;;;5076620;28;20301;-67
2021/10/11 10:34:46;;;;;;;22.05;15.00;;;11.80;1.00;;;;;;5071948;28;20055;-68
2021/10/11 10:37:19;;;;;;;24.65;14.43;;;12.10;1.00;;;;;;5075749;28;20137;-68
2021/10/11 10:39:49;;;;;;;22.52;13.82;;;12.00;1.00;;;;;;5071168;28;20076;-68
2021/10/11 10:42:26;;;;;;;19.20;13.57;;;12.20;1.00;;;;;;5075925;28;20047;-67
2021/10/11 10:44:56;;;;;;;18.58;14.07;;;12.20;1.00;;;;;;5070370;28;20054;-67
2021/10/11 10:47:32;;;;;;;20.65;14.82;;;12.20;1.00;;;;;;5073828;28;20047;-67
2021/10/11 10:50:01;;;;;;;21.13;14.15;;;12.00;1.00;;;;;;5074931;28;20477;-68
2021/10/11 10:52:30;;;;;;;22.33;14.38;;;12.10;1.00;;;;;;5073044;28;20048;-68
2021/10/11 10:55:02;;;;;;;21.63;14.60;;;11.90;1.00;;;;;;5071726;28;20055;-68
2021/10/11 10:57:32;;;;;;;19.02;13.80;;;12.00;1.00;;;;;;5069074;28;20056;-68
2021/10/11 11:00:02;;;;;;;21.25;14.38;;;12.50;1.00;;;;;;5070452;28;20069;-68
2021/10/11 11:02:34;;;;;;;22.85;13.88;;;12.30;1.00;;;;;;5069979;28;20071;-68
2021/10/11 11:05:06;;;;;;;22.27;15.02;;;12.60;1.00;;;;;;5069656;28;20518;-68
2021/10/11 11:07:38;;;;;;;28.08;17.30;;;12.60;1.00;;;;;;5069109;28;20150;-67
2021/10/11 11:10:12;;;;;;;23.35;16.10;;;12.70;1.00;;;;;;5074557;28;20131;-68
2021/10/11 11:12:42;;;;;;;21.08;16.17;;;12.90;1.00;;;;;;5077156;28;20044;-67
2021/10/11 11:15:22;;;;;;;22.70;16.02;;;12.90;1.00;;;;;;5078973;28;20331;-66
2021/10/11 11:17:53;;;;;;;24.10;16.92;;;12.70;1.00;;;;;;5082564;28;20037;-67
2021/10/11 11:20:28;;;;;;;21.85;15.77;;;12.50;1.00;;;;;;5081087;28;20048;-67
2021/10/11 11:23:00;;;;;;;24.85;16.45;;;12.30;1.00;;;;;;5075546;28;20048;-67
2021/10/11 11:25:35;;;;;;;26.83;16.88;;;12.60;1.00;;;;;;5076930;28;20082;-68
2021/10/11 11:28:05;;;;;;;23.65;16.30;;;12.70;1.00;;;;;;5074306;28;20503;-67
2021/10/11 11:30:36;;;;;;;21.15;15.38;;;12.90;1.00;;;;;;5075648;28;20128;-68
2021/10/11 11:33:14;;;;;;;28.50;16.10;;;12.90;1.00;;;;;;5076897;28;20040;-67
2021/10/11 11:35:45;;;;;;;23.90;16.70;;;13.10;1.00;;;;;;5075753;28;20125;-66
2021/10/11 11:38:15;;;;;;;23.40;16.92;;;12.80;1.00;;;;;;5073547;28;20062;-67
2021/10/11 11:40:48;;;;;;;24.40;17.15;;;12.90;1.00;;;;;;5081284;28;20052;-67
2021/10/11 11:43:16;;;;;;;26.77;17.77;;;12.70;1.00;;;;;;5074530;28;20105;-67
2021/10/11 11:45:47;;;;;;;25.67;17.55;;;12.60;1.00;;;;;;5074692;28;20754;-68
2021/10/11 11:48:24;;;;;;;25.38;16.60;;;12.90;1.00;;;;;;5076684;28;20039;-67
2021/10/11 11:50:54;;;;;;;26.17;17.08;;;13.10;1.00;;;;;;5075430;28;20036;-68
2021/10/11 11:53:25;;;;;;;22.75;14.07;;;12.80;1.00;;;;;;5079199;28;20511;-66
2021/10/11 11:55:55;;;;;;;20.17;14.82;;;13.10;1.00;;;;;;5080689;28;20130;-67
2021/10/11 11:58:28;;;;;;;21.75;15.55;;;13.10;1.00;;;;;;5077886;28;20048;-67
2021/10/11 12:00:59;;;;;;;22.50;15.35;;;13.10;1.00;;;;;;5081939;28;20415;-67
2021/10/11 12:03:33;;;;;;;19.80;14.90;;;13.40;1.00;;;;;;5080932;28;20483;-66
2021/10/11 12:06:02;;;;;;;23.73;14.90;;;12.90;1.00;;;;;;5076381;28;20047;-67
2021/10/11 12:08:32;;;;;;;24.80;16.65;;;13.10;1.00;;;;;;5076844;28;20119;-68
2021/10/11 12:11:02;;;;;;;21.90;15.45;;;13.00;1.00;;;;;;5085814;28;20411;-67
2021/10/11 12:13:39;;;;;;;20.92;14.77;;;13.20;1.00;;;;;;5078862;28;20036;-67
2021/10/11 12:16:10;;;;;;;24.75;15.35;;;13.50;1.00;;;;;;5072705;28;20044;-68
2021/10/11 12:18:44;;;;;;;25.13;15.45;;;13.70;1.00;;;;;;5082390;28;20410;-67
2021/10/11 12:21:21;;;;;;;25.17;15.18;;;13.30;1.00;;;;;;5075435;28;20435;-68
2021/10/11 12:23:51;;;;;;;23.45;15.15;;;13.30;1.00;;;;;;5074187;28;20131;-67
2021/10/11 12:26:24;;;;;;;23.50;14.45;;;13.30;1.00;;;;;;5081412;28;20090;-68
2021/10/11 12:28:57;;;;;;;23.23;15.80;;;13.20;1.00;;;;;;5077003;28;20093;-67
2021/10/11 12:31:29;;;;;;;23.85;15.25;;;13.20;1.00;;;;;;5078535;28;20514;-67
2021/10/11 12:34:08;;;;;;;22.60;14.63;;;13.30;1.00;;;;;;5081882;28;20511;-68
2021/10/11 12:36:47;;;;;;;22.05;14.55;;;13.40;1.00;;;;;;5073966;28;20510;-68
2021/10/11 12:39:16;;;;;;;20.13;14.55;;;13.80;1.00;;;;;;5078238;28;20105;-68
2021/10/11 12:41:48;;;;;;;22.83;15.88;;;13.80;1.00;;;;;;5080211;28;20336;-68
2021/10/11 12:44:23;;;;;;;23.38;16.02;;;13.90;1.00;;;;;;5075332;28;20100;-68
2021/10/11 12:46:53;;;;;;;21.85;15.25;;;14.10;1.00;;;;;;5082382;28;20039;-67
2021/10/11 12:49:32;;;;;;;23.20;15.05;;;14.30;1.00;;;;;;5085364;28;20040;-67
2021/10/11 12:52:00;;;;;;;24.60;16.20;;;14.40;1.00;;;;;;5072209;28;20080;-67
2021/10/11 12:54:30;;;;;;;22.17;15.43;;;14.00;1.00;;;;;;5077188;28;20159;-67